Flight Track Log - Related Links

Times and Time Zones

All times are in EDT time to prevent confusion due to time zone crossing. See the QXE2352 flight status page for this flight to view local times or setup timezone preferences in your user account.

Time Position Orientation Groundspeed Altitude Reporting Facility
EDT Latitude Longitude Course Direction KTS MPH feet Rate Location/Type
Sun 12:28:52 PM 46.3669 -120.8936 58° Northeast 359 413 23,000  Level Seattle Center
Sun 12:29:52 PM 46.4311 -120.7456 58° Northeast 361 415 23,000  Level Seattle Center
Sun 12:30:53 PM 46.4844 -120.6175 59° Northeast 367 422 23,000  Level Seattle Center
Sun 12:31:53 PM 46.5383 -120.4914 58° Northeast 367 422 23,000  Level Seattle Center
Sun 12:32:54 PM 46.5903 -120.3669 59° Northeast 363 418 23,000  Level Seattle Center
Sun 12:33:55 PM 46.6428 -120.2414 59° Northeast 362 417 23,000  Level Seattle Center
Sun 12:34:56 PM 46.6942 -120.1183 59° Northeast 360 414 23,000  Level Seattle Center
Sun 12:35:56 PM 46.7469 -119.9933 58° Northeast 362 417 23,000  Level Seattle Center
Sun 12:36:57 PM 46.7994 -119.8639 59° Northeast 365 420 23,000  Level Seattle Center
Sun 12:37:58 PM 46.8514 -119.7381 59° Northeast 364 419 23,000  Level Seattle Center
Sun 12:38:59 PM 46.9031 -119.6114 59° Northeast 363 418 23,000  Level Seattle Center
Sun 12:39:59 PM 46.9556 -119.4847 59° Northeast 364 419 23,000  Level Seattle Center
Sun 12:41:00 PM 47.0058 -119.3578 60° Northeast 362 417 23,000  Level Seattle Center
Sun 12:42:01 PM 47.0569 -119.2322 59° Northeast 361 415 23,000  Level Seattle Center
Sun 12:43:02 PM 47.1100 -119.1058 58° Northeast 362 417 23,000  Level Seattle Center
Sun 12:44:02 PM 47.1614 -118.9803 59° Northeast 361 415 23,000 -149 Level Seattle Center
Sun 12:45:03 PM 47.2108 -118.8544 60° Northeast 360 414 22,700 -738 Descending Seattle Center
Sun 12:46:04 PM 47.2603 -118.7267 60° Northeast 360 414 21,500 -1,328 Descending Seattle Center
Sun 12:47:05 PM 47.3111 -118.5956 60° Northeast 363 418 20,000 -1,488 Descending Seattle Center
Sun 12:48:05 PM 47.3628 -118.4644 60° Northeast 367 422 18,500 -1,587 Descending Seattle Center
Sun 12:49:06 PM 47.4244 -118.3075 60° Northeast 369 425 16,800 -1,574 Descending Seattle Center
Sun 12:50:07 PM 47.4708 -118.1772 62° Northeast 352 405 15,300 -1,488 Descending Seattle Center
Sun 12:51:07 PM 47.5150 -118.0586 61° Northeast 341 392 13,800 -1,488 Descending Seattle Center
Sun 12:52:08 PM 47.5600 -117.9406 61° Northeast 331 381 12,300 -1,574 Descending Seattle Center
Sun 12:53:09 PM 47.6031 -117.8203 62° Northeast 322 371 10,600 -1,736 Descending Seattle Center
Sun 12:54:09 PM 47.6417 -117.7139 62° Northeast 304 350 8,800 -1,785 Descending Seattle Center
Sun 12:55:10 PM 47.6781 -117.6094 63° Northeast 287 330 7,000 -1,426 Descending Seattle Center
Sun 12:56:11 PM 47.7064 -117.5144 66° East 244 281 5,900 -1,623 Descending Seattle Center
Sun 12:57:12 PM 47.6761 -117.4683 134° Southeast 167 192 3,700 -1,537 Descending Seattle Center
Sun 12:58:12 PM 47.6489 -117.4922 211° Southwest 114 131 2,800 -694 Descending Seattle Center
Sun 12:59:13 PM 47.6283 -117.5242 226° Southwest 108 124 2,300 -246 Descending Seattle Center
Sun 01:00:14 PM 47.6244 -117.5339 239° Southwest 73 84 2,300  Level Seattle Center

Login

Don't have an account? Register now (free) for customized features, flight alerts, and more!